sensor_id;sensor_type;location;lat;lon;timestamp;pressure;altitude;pressure_sealevel;temperature;humidity
32131;BME280;18639;50.716;7.086;2023-04-08T00:01:46;100944.97;;;9.16;100.00
32131;BME280;18639;50.716;7.086;2023-04-08T00:04:11;100943.44;;;9.12;100.00
32131;BME280;18639;50.716;7.086;2023-04-08T00:06:38;100936.69;;;9.09;100.00
32131;BME280;18639;50.716;7.086;2023-04-08T00:09:03;100921.91;;;8.96;100.00
32131;BME280;18639;50.716;7.086;2023-04-08T00:11:29;100917.47;;;8.98;100.00
32131;BME280;18639;50.716;7.086;2023-04-08T00:13:55;100951.19;;;9.12;100.00
32131;BME280;18639;50.716;7.086;2023-04-08T00:16:20;100947.91;;;9.08;100.00
32131;BME280;18639;50.716;7.086;2023-04-08T00:18:46;100935.16;;;9.05;100.00
32131;BME280;18639;50.716;7.086;2023-04-08T00:21:13;100915.06;;;8.95;100.00
32131;BME280;18639;50.716;7.086;2023-04-08T00:23:40;100941.94;;;9.08;100.00
32131;BME280;18639;50.716;7.086;2023-04-08T00:26:06;100941.94;;;9.08;100.00
32131;BME280;18639;50.716;7.086;2023-04-08T00:28:31;100948.72;;;9.09;100.00
32131;BME280;18639;50.716;7.086;2023-04-08T00:30:56;100942.06;;;9.05;100.00
32131;BME280;18639;50.716;7.086;2023-04-08T00:33:22;100952.25;;;9.08;100.00
32131;BME280;18639;50.716;7.086;2023-04-08T00:35:49;100951.31;;;9.09;100.00
32131;BME280;18639;50.716;7.086;2023-04-08T00:38:15;100943.75;;;9.06;100.00
32131;BME280;18639;50.716;7.086;2023-04-08T00:40:40;100934.63;;;8.99;100.00
32131;BME280;18639;50.716;7.086;2023-04-08T00:43:05;100950.63;;;9.05;100.00
32131;BME280;18639;50.716;7.086;2023-04-08T00:45:32;100955.56;;;9.10;100.00
32131;BME280;18639;50.716;7.086;2023-04-08T00:47:57;100957.41;;;9.08;100.00
32131;BME280;18639;50.716;7.086;2023-04-08T00:50:23;100959.22;;;9.06;100.00
32131;BME280;18639;50.716;7.086;2023-04-08T00:52:48;100952.38;;;9.05;100.00
32131;BME280;18639;50.716;7.086;2023-04-08T00:55:14;100946.53;;;9.01;100.00
32131;BME280;18639;50.716;7.086;2023-04-08T00:57:39;100951.63;;;9.03;100.00
32131;BME280;18639;50.716;7.086;2023-04-08T01:00:05;100950.69;;;9.04;100.00
32131;BME280;18639;50.716;7.086;2023-04-08T01:02:44;100915.94;;;8.76;100.00
32131;BME280;18639;50.716;7.086;2023-04-08T01:05:23;100948.00;;;9.07;100.00
32131;BME280;18639;50.716;7.086;2023-04-08T01:07:52;100949.88;;;9.03;100.00
32131;BME280;18639;50.716;7.086;2023-04-08T01:10:23;100963.31;;;9.10;100.00
32131;BME280;18639;50.716;7.086;2023-04-08T01:12:56;100962.47;;;9.09;100.00
32131;BME280;18639;50.716;7.086;2023-04-08T01:15:23;100961.00;;;9.04;100.00
32131;BME280;18639;50.716;7.086;2023-04-08T01:17:52;100954.94;;;9.05;100.00
32131;BME280;18639;50.716;7.086;2023-04-08T01:20:18;100956.69;;;9.04;100.00
32131;BME280;18639;50.716;7.086;2023-04-08T01:25:29;100955.84;;;9.04;100.00
32131;BME280;18639;50.716;7.086;2023-04-08T01:27:57;100952.53;;;9.02;100.00
32131;BME280;18639;50.716;7.086;2023-04-08T01:30:24;100950.69;;;9.04;100.00
32131;BME280;18639;50.716;7.086;2023-04-08T01:32:52;100945.09;;;8.96;100.00
32131;BME280;18639;50.716;7.086;2023-04-08T01:35:18;100968.75;;;9.04;100.00
32131;BME280;18639;50.716;7.086;2023-04-08T01:37:44;100966.88;;;9.07;100.00
32131;BME280;18639;50.716;7.086;2023-04-08T01:40:11;100946.91;;;8.94;100.00
32131;BME280;18639;50.716;7.086;2023-04-08T01:42:36;100956.09;;;8.99;100.00
32131;BME280;18639;50.716;7.086;2023-04-08T01:45:03;100955.34;;;8.97;100.00
32131;BME280;18639;50.716;7.086;2023-04-08T01:47:29;100968.00;;;9.02;100.00
32131;BME280;18639;50.716;7.086;2023-04-08T01:49:56;100964.66;;;9.00;100.00
32131;BME280;18639;50.716;7.086;2023-04-08T01:52:24;100955.41;;;8.96;100.00
32131;BME280;18639;50.716;7.086;2023-04-08T01:54:50;100960.41;;;8.99;100.00
32131;BME280;18639;50.716;7.086;2023-04-08T01:57:21;100961.41;;;8.96;100.00
32131;BME280;18639;50.716;7.086;2023-04-08T01:59:51;100949.75;;;8.87;100.00
32131;BME280;18639;50.716;7.086;2023-04-08T02:02:19;100931.72;;;8.70;100.00
32131;BME280;18639;50.716;7.086;2023-04-08T02:04:45;100938.84;;;8.82;100.00
32131;BME280;18639;50.716;7.086;2023-04-08T02:07:10;100953.13;;;8.90;100.00
32131;BME280;18639;50.716;7.086;2023-04-08T02:09:36;100959.94;;;8.91;100.00
32131;BME280;18639;50.716;7.086;2023-04-08T02:12:02;100953.13;;;8.90;100.00
32131;BME280;18639;50.716;7.086;2023-04-08T02:14:27;100963.25;;;8.93;100.00
32131;BME280;18639;50.716;7.086;2023-04-08T02:16:55;100973.44;;;8.96;100.00
32131;BME280;18639;50.716;7.086;2023-04-08T02:19:29;100985.56;;;8.94;100.00
32131;BME280;18639;50.716;7.086;2023-04-08T02:22:00;100982.25;;;8.92;100.00
32131;BME280;18639;50.716;7.086;2023-04-08T02:24:27;100964.16;;;8.74;100.00
32131;BME280;18639;50.716;7.086;2023-04-08T02:26:55;100976.66;;;8.82;100.00
32131;BME280;18639;50.716;7.086;2023-04-08T02:29:21;100986.13;;;8.81;100.00
32131;BME280;18639;50.716;7.086;2023-04-08T02:31:47;100987.81;;;8.82;100.00
32131;BME280;18639;50.716;7.086;2023-04-08T02:34:14;100980.28;;;8.78;100.00
32131;BME280;18639;50.716;7.086;2023-04-08T02:36:40;100980.34;;;8.76;100.00
32131;BME280;18639;50.716;7.086;2023-04-08T02:39:07;100982.94;;;8.76;100.00
32131;BME280;18639;50.716;7.086;2023-04-08T02:41:32;100992.28;;;8.79;100.00
32131;BME280;18639;50.716;7.086;2023-04-08T02:43:57;100964.72;;;8.62;100.00
32131;BME280;18639;50.716;7.086;2023-04-08T02:46:23;100990.66;;;8.76;100.00
32131;BME280;18639;50.716;7.086;2023-04-08T02:48:48;100992.50;;;8.74;100.00
32131;BME280;18639;50.716;7.086;2023-04-08T02:51:14;100971.66;;;8.60;100.00
32131;BME280;18639;50.716;7.086;2023-04-08T02:53:39;100985.72;;;8.72;100.00
32131;BME280;18639;50.716;7.086;2023-04-08T02:56:05;100985.06;;;8.68;100.00
32131;BME280;18639;50.716;7.086;2023-04-08T02:58:30;100994.25;;;8.74;100.00
32131;BME280;18639;50.716;7.086;2023-04-08T03:00:55;100981.69;;;8.66;100.00
32131;BME280;18639;50.716;7.086;2023-04-08T03:03:21;100980.56;;;8.72;100.00
32131;BME280;18639;50.716;7.086;2023-04-08T03:05:52;100996.75;;;8.75;100.00
32131;BME280;18639;50.716;7.086;2023-04-08T03:08:18;100994.19;;;8.75;100.00
32131;BME280;18639;50.716;7.086;2023-04-08T03:10:43;100979.75;;;8.71;100.00
32131;BME280;18639;50.716;7.086;2023-04-08T03:13:08;100968.19;;;8.61;100.00
32131;BME280;18639;50.716;7.086;2023-04-08T03:15:33;100969.19;;;8.59;100.00
32131;BME280;18639;50.716;7.086;2023-04-08T03:17:59;100988.25;;;8.73;100.00
32131;BME280;18639;50.716;7.086;2023-04-08T03:20:24;100991.59;;;8.75;100.00
32131;BME280;18639;50.716;7.086;2023-04-08T03:22:49;100977.38;;;8.67;100.00
32131;BME280;18639;50.716;7.086;2023-04-08T03:25:15;100979.06;;;8.68;100.00
32131;BME280;18639;50.716;7.086;2023-04-08T03:27:40;100982.53;;;8.67;100.00
32131;BME280;18639;50.716;7.086;2023-04-08T03:30:06;100992.50;;;8.74;100.00
32131;BME280;18639;50.716;7.086;2023-04-08T03:32:32;100983.38;;;8.67;100.00
32131;BME280;18639;50.716;7.086;2023-04-08T03:34:57;100978.38;;;8.64;100.00
32131;BME280;18639;50.716;7.086;2023-04-08T03:37:22;100965.00;;;8.56;100.00
32131;BME280;18639;50.716;7.086;2023-04-08T03:39:47;101001.13;;;8.73;100.00
32131;BME280;18639;50.716;7.086;2023-04-08T03:42:13;101001.19;;;8.72;100.00
32131;BME280;18639;50.716;7.086;2023-04-08T03:44:38;101004.66;;;8.71;100.00
32131;BME280;18639;50.716;7.086;2023-04-08T03:47:03;100973.34;;;8.61;100.00
32131;BME280;18639;50.716;7.086;2023-04-08T03:49:28;100991.88;;;8.69;100.00
32131;BME280;18639;50.716;7.086;2023-04-08T03:51:54;101003.50;;;8.78;100.00
32131;BME280;18639;50.716;7.086;2023-04-08T03:54:19;101004.53;;;8.74;100.00
32131;BME280;18639;50.716;7.086;2023-04-08T03:56:45;100998.56;;;8.73;100.00
32131;BME280;18639;50.716;7.086;2023-04-08T03:59:10;100988.59;;;8.66;100.00
32131;BME280;18639;50.716;7.086;2023-04-08T04:01:35;101000.22;;;8.74;100.00
32131;BME280;18639;50.716;7.086;2023-04-08T04:04:01;100993.69;;;8.67;100.00
32131;BME280;18639;50.716;7.086;2023-04-08T04:06:26;101001.91;;;8.75;100.00
32131;BME280;18639;50.716;7.086;2023-04-08T04:08:53;101003.66;;;8.75;100.00
32131;BME280;18639;50.716;7.086;2023-04-08T04:11:19;101002.75;;;8.76;100.00
32131;BME280;18639;50.716;7.086;2023-04-08T04:13:46;101002.03;;;8.72;100.00
32131;BME280;18639;50.716;7.086;2023-04-08T04:16:11;101003.84;;;8.70;100.00
32131;BME280;18639;50.716;7.086;2023-04-08T04:18:36;101009.00;;;8.70;100.00
32131;BME280;18639;50.716;7.086;2023-04-08T04:21:04;101001.34;;;8.69;100.00
32131;BME280;18639;50.716;7.086;2023-04-08T04:23:31;101005.66;;;8.68;100.00
32131;BME280;18639;50.716;7.086;2023-04-08T04:25:56;101010.66;;;8.71;100.00
32131;BME280;18639;50.716;7.086;2023-04-08T04:28:21;100993.97;;;8.61;100.00
32131;BME280;18639;50.716;7.086;2023-04-08T04:30:46;101014.16;;;8.70;100.00
32131;BME280;18639;50.716;7.086;2023-04-08T04:33:12;101004.13;;;8.64;100.00
32131;BME280;18639;50.716;7.086;2023-04-08T04:35:38;101015.81;;;8.71;100.00
32131;BME280;18639;50.716;7.086;2023-04-08T04:38:04;101000.78;;;8.62;100.00
32131;BME280;18639;50.716;7.086;2023-04-08T04:40:34;101015.06;;;8.69;100.00
32131;BME280;18639;50.716;7.086;2023-04-08T04:43:00;100991.59;;;8.57;100.00
32131;BME280;18639;50.716;7.086;2023-04-08T04:45:25;101014.28;;;8.67;100.00
32131;BME280;18639;50.716;7.086;2023-04-08T04:47:51;101022.63;;;8.72;100.00
32131;BME280;18639;50.716;7.086;2023-04-08T04:50:16;101025.28;;;8.71;100.00
32131;BME280;18639;50.716;7.086;2023-04-08T04:52:41;101015.97;;;8.68;100.00
32131;BME280;18639;50.716;7.086;2023-04-08T04:55:07;101015.97;;;8.68;100.00
32131;BME280;18639;50.716;7.086;2023-04-08T04:57:32;101022.78;;;8.69;100.00
32131;BME280;18639;50.716;7.086;2023-04-08T04:59:57;101024.53;;;8.69;100.00
32131;BME280;18639;50.716;7.086;2023-04-08T05:02:23;101033.84;;;8.71;100.00
32131;BME280;18639;50.716;7.086;2023-04-08T05:04:48;101022.22;;;8.63;100.00
32131;BME280;18639;50.716;7.086;2023-04-08T05:07:13;101027.09;;;8.69;100.00
32131;BME280;18639;50.716;7.086;2023-04-08T05:09:38;101004.69;;;8.52;100.00
32131;BME280;18639;50.716;7.086;2023-04-08T05:12:04;101022.28;;;8.61;100.00
32131;BME280;18639;50.716;7.086;2023-04-08T05:14:29;101015.69;;;8.56;100.00
32131;BME280;18639;50.716;7.086;2023-04-08T05:16:55;101042.56;;;8.69;100.00
32131;BME280;18639;50.716;7.086;2023-04-08T05:19:21;101035.69;;;8.69;100.00
32131;BME280;18639;50.716;7.086;2023-04-08T05:21:46;101017.41;;;8.55;100.00
32131;BME280;18639;50.716;7.086;2023-04-08T05:24:11;101042.28;;;8.75;100.00
32131;BME280;18639;50.716;7.086;2023-04-08T05:26:37;100973.91;;;8.30;100.00
32131;BME280;18639;50.716;7.086;2023-04-08T05:29:02;101039.22;;;8.67;100.00
32131;BME280;18639;50.716;7.086;2023-04-08T05:31:27;101023.00;;;8.65;100.00
32131;BME280;18639;50.716;7.086;2023-04-08T05:33:52;101028.06;;;8.66;100.00
32131;BME280;18639;50.716;7.086;2023-04-08T05:36:18;101044.94;;;8.73;100.00
32131;BME280;18639;50.716;7.086;2023-04-08T05:38:43;101014.50;;;8.63;100.00
32131;BME280;18639;50.716;7.086;2023-04-08T05:41:09;101011.09;;;8.62;100.00
32131;BME280;18639;50.716;7.086;2023-04-08T05:43:34;101042.97;;;8.78;100.00
32131;BME280;18639;50.716;7.086;2023-04-08T05:46:05;101044.66;;;8.79;100.00
32131;BME280;18639;50.716;7.086;2023-04-08T05:48:31;101058.16;;;8.84;100.00
32131;BME280;18639;50.716;7.086;2023-04-08T05:50:56;101053.84;;;8.85;100.00
32131;BME280;18639;50.716;7.086;2023-04-08T05:53:21;100993.88;;;8.44;100.00
32131;BME280;18639;50.716;7.086;2023-04-08T05:55:48;101039.34;;;8.82;100.00
32131;BME280;18639;50.716;7.086;2023-04-08T05:58:13;101059.56;;;8.92;100.00
32131;BME280;18639;50.716;7.086;2023-04-08T06:00:39;101018.97;;;8.59;100.00
32131;BME280;18639;50.716;7.086;2023-04-08T06:03:04;101048.81;;;8.82;100.00
32131;BME280;18639;50.716;7.086;2023-04-08T06:05:30;101018.75;;;8.64;100.00
32131;BME280;18639;50.716;7.086;2023-04-08T06:07:55;100975.16;;;8.40;100.00
32131;BME280;18639;50.716;7.086;2023-04-08T06:10:20;101060.53;;;8.89;100.00
32131;BME280;18639;50.716;7.086;2023-04-08T06:12:45;101026.81;;;8.56;100.00
32131;BME280;18639;50.716;7.086;2023-04-08T06:15:11;101072.22;;;8.96;100.00
32131;BME280;18639;50.716;7.086;2023-04-08T06:17:36;101084.13;;;8.99;100.00
32131;BME280;18639;50.716;7.086;2023-04-08T06:20:02;101091.72;;;9.02;100.00
32131;BME280;18639;50.716;7.086;2023-04-08T06:22:28;101080.03;;;8.95;100.00
32131;BME280;18639;50.716;7.086;2023-04-08T06:24:54;101052.22;;;8.82;100.00
32131;BME280;18639;50.716;7.086;2023-04-08T06:27:19;101092.47;;;9.04;100.00
32131;BME280;18639;50.716;7.086;2023-04-08T06:29:45;101088.53;;;8.97;100.00
32131;BME280;18639;50.716;7.086;2023-04-08T06:32:11;101050.25;;;8.70;100.00
32131;BME280;18639;50.716;7.086;2023-04-08T06:34:36;101082.53;;;8.96;100.00
32131;BME280;18639;50.716;7.086;2023-04-08T06:37:02;101103.41;;;9.09;100.00
32131;BME280;18639;50.716;7.086;2023-04-08T06:39:27;101061.91;;;8.77;100.00
32131;BME280;18639;50.716;7.086;2023-04-08T06:41:53;101058.44;;;8.78;100.00
32131;BME280;18639;50.716;7.086;2023-04-08T06:44:18;101094.22;;;9.03;100.00
32131;BME280;18639;50.716;7.086;2023-04-08T06:46:44;101100.22;;;9.04;100.00
32131;BME280;18639;50.716;7.086;2023-04-08T06:49:09;101097.34;;;9.10;100.00
32131;BME280;18639;50.716;7.086;2023-04-08T06:51:34;101093.47;;;9.01;100.00
32131;BME280;18639;50.716;7.086;2023-04-08T06:54:00;101100.00;;;9.08;100.00
32131;BME280;18639;50.716;7.086;2023-04-08T06:56:26;101088.94;;;9.06;100.00
32131;BME280;18639;50.716;7.086;2023-04-08T06:58:51;101101.19;;;9.20;100.00
32131;BME280;18639;50.716;7.086;2023-04-08T07:01:17;101104.53;;;9.22;100.00
32131;BME280;18639;50.716;7.086;2023-04-08T07:03:42;101108.56;;;9.27;100.00
32131;BME280;18639;50.716;7.086;2023-04-08T07:06:08;101106.06;;;9.26;100.00
32131;BME280;18639;50.716;7.086;2023-04-08T07:08:33;101106.34;;;9.20;100.00
32131;BME280;18639;50.716;7.086;2023-04-08T07:10:58;101111.09;;;9.29;100.00
32131;BME280;18639;50.716;7.086;2023-04-08T07:13:24;101116.16;;;9.30;100.00
32131;BME280;18639;50.716;7.086;2023-04-08T07:15:49;101079.88;;;9.16;100.00
32131;BME280;18639;50.716;7.086;2023-04-08T07:18:15;101108.97;;;9.37;100.00
32131;BME280;18639;50.716;7.086;2023-04-08T07:20:40;101098.03;;;9.32;100.00
32131;BME280;18639;50.716;7.086;2023-04-08T07:23:06;101130.84;;;9.47;100.00
32131;BME280;18639;50.716;7.086;2023-04-08T07:25:32;101128.19;;;9.49;100.00
32131;BME280;18639;50.716;7.086;2023-04-08T07:27:58;101121.22;;;9.51;100.00
32131;BME280;18639;50.716;7.086;2023-04-08T07:30:23;101125.56;;;9.50;100.00
32131;BME280;18639;50.716;7.086;2023-04-08T07:32:49;101125.22;;;9.56;100.00
32131;BME280;18639;50.716;7.086;2023-04-08T07:35:14;101125.22;;;9.56;100.00
32131;BME280;18639;50.716;7.086;2023-04-08T07:37:47;101116.75;;;9.54;100.00
32131;BME280;18639;50.716;7.086;2023-04-08T07:40:13;101130.38;;;9.56;100.00
32131;BME280;18639;50.716;7.086;2023-04-08T07:42:38;101104.28;;;9.45;100.00
32131;BME280;18639;50.716;7.086;2023-04-08T07:45:03;101142.38;;;9.57;100.00
32131;BME280;18639;50.716;7.086;2023-04-08T07:47:29;101144.06;;;9.58;100.00
32131;BME280;18639;50.716;7.086;2023-04-08T07:49:54;101155.78;;;9.65;100.00
32131;BME280;18639;50.716;7.086;2023-04-08T07:52:19;101159.09;;;9.67;100.00
32131;BME280;18639;50.716;7.086;2023-04-08T07:54:45;101147.53;;;9.76;100.00
32131;BME280;18639;50.716;7.086;2023-04-08T07:57:11;101139.38;;;9.84;100.00
32131;BME280;18639;50.716;7.086;2023-04-08T07:59:36;101131.66;;;9.84;100.00
32131;BME280;18639;50.716;7.086;2023-04-08T08:02:01;101141.69;;;9.90;100.00
32131;BME280;18639;50.716;7.086;2023-04-08T08:04:27;101154.00;;;10.02;100.00
32131;BME280;18639;50.716;7.086;2023-04-08T08:06:52;101128.53;;;9.94;100.00
32131;BME280;18639;50.716;7.086;2023-04-08T08:09:17;101147.03;;;10.04;100.00
32131;BME280;18639;50.716;7.086;2023-04-08T08:11:43;101159.00;;;10.05;100.00
32131;BME280;18639;50.716;7.086;2023-04-08T08:14:08;101150.22;;;10.09;100.00
32131;BME280;18639;50.716;7.086;2023-04-08T08:16:35;101160.59;;;10.07;100.00
32131;BME280;18639;50.716;7.086;2023-04-08T08:19:02;101142.44;;;9.92;100.00
32131;BME280;18639;50.716;7.086;2023-04-08T08:21:30;101151.84;;;10.10;100.00
32131;BME280;18639;50.716;7.086;2023-04-08T08:23:55;101143.97;;;10.13;100.00
32131;BME280;18639;50.716;7.086;2023-04-08T08:26:20;101149.19;;;10.11;100.00
32131;BME280;18639;50.716;7.086;2023-04-08T08:28:46;101154.63;;;10.24;100.00
32131;BME280;18639;50.716;7.086;2023-04-08T08:31:11;101159.81;;;10.24;100.00
32131;BME280;18639;50.716;7.086;2023-04-08T08:33:36;101178.31;;;10.32;100.00
32131;BME280;18639;50.716;7.086;2023-04-08T08:36:02;101165.63;;;10.28;100.00
32131;BME280;18639;50.716;7.086;2023-04-08T08:38:29;101155.13;;;10.13;100.00
32131;BME280;18639;50.716;7.086;2023-04-08T08:40:58;101176.66;;;10.31;100.00
32131;BME280;18639;50.716;7.086;2023-04-08T08:43:24;101166.19;;;10.34;100.00
32131;BME280;18639;50.716;7.086;2023-04-08T08:45:50;101181.06;;;10.46;100.00
32131;BME280;18639;50.716;7.086;2023-04-08T08:48:16;101176.97;;;10.25;100.00
32131;BME280;18639;50.716;7.086;2023-04-08T08:50:44;101175.00;;;10.30;100.00
32131;BME280;18639;50.716;7.086;2023-04-08T08:53:10;101187.63;;;10.36;100.00
32131;BME280;18639;50.716;7.086;2023-04-08T08:55:35;101182.22;;;10.41;100.00
32131;BME280;18639;50.716;7.086;2023-04-08T08:58:02;101163.03;;;10.45;100.00
32131;BME280;18639;50.716;7.086;2023-04-08T09:00:35;101190.31;;;10.68;100.00
32131;BME280;18639;50.716;7.086;2023-04-08T09:03:26;101178.81;;;10.73;100.00
32131;BME280;18639;50.716;7.086;2023-04-08T09:05:59;101183.06;;;10.74;100.00
32131;BME280;18639;50.716;7.086;2023-04-08T09:08:33;101164.59;;;10.65;100.00
32131;BME280;18639;50.716;7.086;2023-04-08T09:13:37;101197.69;;;10.91;100.00
32131;BME280;18639;50.716;7.086;2023-04-08T09:16:10;101193.53;;;10.88;100.00
32131;BME280;18639;50.716;7.086;2023-04-08T09:18:37;101191.03;;;10.70;100.00
32131;BME280;18639;50.716;7.086;2023-04-08T09:21:06;101197.28;;;10.83;100.00
32131;BME280;18639;50.716;7.086;2023-04-08T09:23:47;101184.47;;;10.80;100.00
32131;BME280;18639;50.716;7.086;2023-04-08T09:26:14;101166.50;;;10.78;100.00
32131;BME280;18639;50.716;7.086;2023-04-08T09:28:41;101173.81;;;10.86;100.00
32131;BME280;18639;50.716;7.086;2023-04-08T09:31:18;101189.53;;;10.98;100.00
32131;BME280;18639;50.716;7.086;2023-04-08T09:33:45;101186.88;;;11.00;100.00
32131;BME280;18639;50.716;7.086;2023-04-08T09:36:11;101124.91;;;10.66;100.00
32131;BME280;18639;50.716;7.086;2023-04-08T09:38:37;101213.13;;;11.25;100.00
32131;BME280;18639;50.716;7.086;2023-04-08T09:41:05;101193.50;;;11.21;100.00
32131;BME280;18639;50.716;7.086;2023-04-08T09:43:33;101203.44;;;11.29;100.00
32131;BME280;18639;50.716;7.086;2023-04-08T09:46:01;101211.44;;;11.56;100.00
32131;BME280;18639;50.716;7.086;2023-04-08T09:48:31;101210.94;;;11.65;100.00
32131;BME280;18639;50.716;7.086;2023-04-08T09:51:02;101208.34;;;11.65;100.00
32131;BME280;18639;50.716;7.086;2023-04-08T09:53:37;101204.28;;;11.61;100.00
32131;BME280;18639;50.716;7.086;2023-04-08T09:56:06;101201.81;;;11.75;100.00
32131;BME280;18639;50.716;7.086;2023-04-08T09:58:56;101205.75;;;11.65;100.00
32131;BME280;18639;50.716;7.086;2023-04-08T10:01:49;101197.59;;;11.88;100.00
32131;BME280;18639;50.716;7.086;2023-04-08T10:04:17;101197.66;;;11.87;100.00
32131;BME280;18639;50.716;7.086;2023-04-08T10:06:49;101193.91;;;11.92;100.00
32131;BME280;18639;50.716;7.086;2023-04-08T10:09:18;101194.25;;;11.86;100.00
32131;BME280;18639;50.716;7.086;2023-04-08T10:11:44;101196.03;;;11.86;100.00
32131;BME280;18639;50.716;7.086;2023-04-08T10:14:09;101179.81;;;11.51;100.00
32131;BME280;18639;50.716;7.086;2023-04-08T10:16:35;101174.06;;;11.46;100.00
32131;BME280;18639;50.716;7.086;2023-04-08T10:19:00;101187.00;;;11.46;100.00
32131;BME280;18639;50.716;7.086;2023-04-08T10:21:39;101193.84;;;11.47;100.00
32131;BME280;18639;50.716;7.086;2023-04-08T10:24:09;101207.69;;;11.46;100.00
32131;BME280;18639;50.716;7.086;2023-04-08T10:26:37;101190.94;;;11.37;100.00
32131;BME280;18639;50.716;7.086;2023-04-08T10:31:47;101182.91;;;11.42;100.00
32131;BME280;18639;50.716;7.086;2023-04-08T10:34:22;101193.34;;;11.56;100.00
32131;BME280;18639;50.716;7.086;2023-04-08T10:36:52;101204.59;;;11.70;100.00
32131;BME280;18639;50.716;7.086;2023-04-08T10:39:19;101185.81;;;11.67;100.00
32131;BME280;18639;50.716;7.086;2023-04-08T10:41:47;101195.66;;;11.60;100.00
32131;BME280;18639;50.716;7.086;2023-04-08T10:44:23;101185.91;;;11.50;100.00
32131;BME280;18639;50.716;7.086;2023-04-08T10:46:50;101196.44;;;11.62;100.00
32131;BME280;18639;50.716;7.086;2023-04-08T10:49:16;101163.19;;;11.39;100.00
32131;BME280;18639;50.716;7.086;2023-04-08T10:51:43;101167.88;;;11.48;100.00
32131;BME280;18639;50.716;7.086;2023-04-08T10:54:19;101197.41;;;11.60;100.00
32131;BME280;18639;50.716;7.086;2023-04-08T10:59:12;101203.09;;;11.66;100.00
32131;BME280;18639;50.716;7.086;2023-04-08T11:01:42;101202.09;;;11.69;100.00
32131;BME280;18639;50.716;7.086;2023-04-08T11:04:12;101201.28;;;11.68;100.00
32131;BME280;18639;50.716;7.086;2023-04-08T11:06:38;101134.41;;;11.29;100.00
32131;BME280;18639;50.716;7.086;2023-04-08T11:09:03;101194.19;;;11.40;100.00
32131;BME280;18639;50.716;7.086;2023-04-08T11:11:29;101196.00;;;11.38;100.00
32131;BME280;18639;50.716;7.086;2023-04-08T11:13:55;101200.59;;;11.33;100.00
32131;BME280;18639;50.716;7.086;2023-04-08T11:16:21;101191.41;;;11.44;100.00
32131;BME280;18639;50.716;7.086;2023-04-08T11:18:47;101178.72;;;11.55;100.00
32131;BME280;18639;50.716;7.086;2023-04-08T11:21:12;101184.13;;;11.66;100.00
32131;BME280;18639;50.716;7.086;2023-04-08T11:23:37;101164.19;;;11.68;100.00
32131;BME280;18639;50.716;7.086;2023-04-08T11:26:03;101191.38;;;12.06;100.00
32131;BME280;18639;50.716;7.086;2023-04-08T11:28:29;101181.38;;;12.00;100.00
32131;BME280;18639;50.716;7.086;2023-04-08T11:30:54;101189.97;;;12.31;100.00
32131;BME280;18639;50.716;7.086;2023-04-08T11:33:20;101180.56;;;12.44;100.00
32131;BME280;18639;50.716;7.086;2023-04-08T11:35:49;101170.91;;;12.32;100.00
32131;BME280;18639;50.716;7.086;2023-04-08T11:38:15;101184.91;;;12.43;100.00
32131;BME280;18639;50.716;7.086;2023-04-08T11:40:51;101184.63;;;12.34;100.00
32131;BME280;18639;50.716;7.086;2023-04-08T11:43:18;101175.53;;;12.27;100.00
32131;BME280;18639;50.716;7.086;2023-04-08T11:45:43;101169.56;;;12.10;96.36
32131;BME280;18639;50.716;7.086;2023-04-08T11:48:13;101175.31;;;12.15;100.00
32131;BME280;18639;50.716;7.086;2023-04-08T11:50:40;101145.25;;;11.97;100.00
32131;BME280;18639;50.716;7.086;2023-04-08T11:53:24;101177.13;;;12.13;100.00
32131;BME280;18639;50.716;7.086;2023-04-08T11:55:50;101172.31;;;12.07;100.00
32131;BME280;18639;50.716;7.086;2023-04-08T11:58:20;101164.50;;;11.93;100.00
32131;BME280;18639;50.716;7.086;2023-04-08T12:00:45;101152.69;;;11.73;100.00
32131;BME280;18639;50.716;7.086;2023-04-08T12:03:11;101185.56;;;11.87;100.00
32131;BME280;18639;50.716;7.086;2023-04-08T12:05:37;101173.13;;;11.78;100.00
32131;BME280;18639;50.716;7.086;2023-04-08T12:08:03;101178.47;;;11.59;98.92
32131;BME280;18639;50.716;7.086;2023-04-08T12:10:28;101177.66;;;11.59;100.00
32131;BME280;18639;50.716;7.086;2023-04-08T12:12:53;101157.19;;;11.38;100.00
32131;BME280;18639;50.716;7.086;2023-04-08T12:15:19;101162.72;;;11.48;100.00
32131;BME280;18639;50.716;7.086;2023-04-08T12:17:44;101171.72;;;11.57;100.00
32131;BME280;18639;50.716;7.086;2023-04-08T12:20:12;101177.28;;;11.65;100.00
32131;BME280;18639;50.716;7.086;2023-04-08T12:22:38;101164.03;;;11.55;100.00
32131;BME280;18639;50.716;7.086;2023-04-08T12:25:04;101150.75;;;11.46;100.00
32131;BME280;18639;50.716;7.086;2023-04-08T12:27:30;101180.91;;;11.62;100.00
32131;BME280;18639;50.716;7.086;2023-04-08T12:29:59;101180.91;;;11.62;100.00
32131;BME280;18639;50.716;7.086;2023-04-08T12:32:25;101188.09;;;11.73;100.00
32131;BME280;18639;50.716;7.086;2023-04-08T12:34:51;101183.22;;;11.67;100.00
32131;BME280;18639;50.716;7.086;2023-04-08T12:37:16;101184.06;;;11.67;100.00
32131;BME280;18639;50.716;7.086;2023-04-08T12:39:41;101190.22;;;11.65;100.00
32131;BME280;18639;50.716;7.086;2023-04-08T12:42:07;101150.94;;;11.27;100.00
32131;BME280;18639;50.716;7.086;2023-04-08T12:44:32;101175.72;;;11.47;100.00
32131;BME280;18639;50.716;7.086;2023-04-08T12:46:57;101174.63;;;11.51;100.00
32131;BME280;18639;50.716;7.086;2023-04-08T12:49:24;101165.78;;;11.39;100.00
32131;BME280;18639;50.716;7.086;2023-04-08T12:51:49;101184.22;;;11.49;100.00
32131;BME280;18639;50.716;7.086;2023-04-08T12:54:14;101168.38;;;11.55;100.00